createdAt,value
2018-03-30T00:01:50.891Z,19.08
2018-03-30T00:04:17.324Z,19.04
2018-03-30T00:06:43.560Z,19.02
2018-03-30T00:09:09.815Z,19.03
2018-03-30T00:11:36.055Z,19.02
2018-03-30T00:14:02.210Z,19.02
2018-03-30T00:16:28.402Z,19.02
2018-03-30T00:18:54.574Z,19.02
2018-03-30T00:21:20.758Z,19.00
2018-03-30T00:23:46.988Z,19.01
2018-03-30T00:26:13.153Z,18.99
2018-03-30T00:28:39.603Z,19.01
2018-03-30T00:31:06.140Z,19.01
2018-03-30T00:33:32.343Z,19.00
2018-03-30T00:35:58.552Z,19.00
2018-03-30T00:38:24.794Z,19.01
2018-03-30T00:40:51.017Z,19.02
2018-03-30T00:43:17.187Z,19.02
2018-03-30T00:45:43.716Z,19.00
2018-03-30T00:48:10.037Z,18.99
2018-03-30T00:50:37.106Z,18.99
2018-03-30T00:53:03.308Z,18.98
2018-03-30T00:55:29.496Z,18.98
2018-03-30T00:57:55.982Z,18.98
2018-03-30T01:00:22.233Z,18.99
2018-03-30T01:02:48.431Z,18.98
2018-03-30T01:05:14.604Z,18.98
2018-03-30T01:07:41.112Z,18.97
2018-03-30T01:10:07.635Z,18.96
2018-03-30T01:12:34.065Z,18.95
2018-03-30T01:15:00.287Z,18.96
2018-03-30T01:17:26.502Z,18.96
2018-03-30T01:19:52.676Z,18.97
2018-03-30T01:22:18.892Z,18.96
2018-03-30T01:24:45.053Z,18.96
2018-03-30T01:27:11.223Z,18.96
2018-03-30T01:29:37.646Z,18.95
2018-03-30T01:32:03.862Z,18.97
2018-03-30T01:34:30.014Z,18.97
2018-03-30T01:36:56.171Z,18.98
2018-03-30T01:39:22.409Z,18.96
2018-03-30T01:41:49.021Z,18.95
2018-03-30T01:44:22.080Z,18.95
2018-03-30T01:46:48.657Z,18.95
2018-03-30T01:49:14.867Z,18.95
2018-03-30T01:51:41.047Z,18.95
2018-03-30T01:54:07.523Z,18.94
2018-03-30T01:56:33.767Z,18.95
2018-03-30T01:59:00.344Z,18.95
2018-03-30T02:01:26.511Z,18.94
2018-03-30T02:03:52.711Z,18.93
2018-03-30T02:06:18.875Z,18.92
2018-03-30T02:08:45.403Z,18.91
2018-03-30T02:11:11.633Z,18.90
2018-03-30T02:13:37.835Z,18.90
2018-03-30T02:16:04.000Z,18.89
2018-03-30T02:18:30.523Z,18.89
2018-03-30T02:20:56.742Z,18.89
2018-03-30T02:23:22.906Z,18.88
2018-03-30T02:25:49.211Z,18.85
2018-03-30T02:28:15.375Z,18.86
2018-03-30T02:30:41.867Z,18.87
2018-03-30T02:33:08.089Z,18.87
2018-03-30T02:35:34.318Z,18.85
2018-03-30T02:38:00.754Z,18.87
2018-03-30T02:40:26.987Z,18.88
2018-03-30T02:42:53.179Z,18.87
2018-03-30T02:45:19.384Z,18.86
2018-03-30T02:47:45.631Z,18.86
2018-03-30T02:50:11.794Z,18.87
2018-03-30T02:52:38.043Z,18.87
2018-03-30T02:55:04.215Z,18.85
2018-03-30T02:57:30.801Z,18.85
2018-03-30T02:59:57.086Z,18.85
2018-03-30T03:02:23.264Z,18.86
2018-03-30T03:04:49.484Z,18.84
2018-03-30T03:07:15.645Z,18.82
2018-03-30T03:09:42.136Z,18.83
2018-03-30T03:12:08.682Z,18.84
2018-03-30T03:14:34.869Z,18.84
2018-03-30T03:17:01.027Z,18.85
2018-03-30T03:19:27.556Z,18.86
2018-03-30T03:21:53.753Z,18.84
2018-03-30T03:24:19.914Z,18.84
2018-03-30T03:26:46.442Z,18.83
2018-03-30T03:29:12.671Z,18.83
2018-03-30T03:31:38.914Z,18.84
2018-03-30T03:34:05.087Z,18.85
2018-03-30T03:36:31.325Z,18.84
2018-03-30T03:38:57.560Z,18.83
2018-03-30T03:41:23.767Z,18.81
2018-03-30T03:43:50.247Z,18.82
2018-03-30T03:46:16.415Z,18.83
2018-03-30T03:48:42.610Z,18.83
2018-03-30T03:51:08.779Z,18.82
2018-03-30T03:53:35.026Z,18.82
2018-03-30T03:56:01.219Z,18.83
2018-03-30T03:58:27.436Z,18.82
2018-03-30T04:00:53.596Z,18.82
2018-03-30T04:03:20.189Z,18.82
2018-03-30T04:05:46.417Z,18.81
2018-03-30T04:08:12.834Z,18.79
2018-03-30T04:10:39.024Z,18.79
2018-03-30T04:13:05.514Z,18.82
2018-03-30T04:15:32.037Z,18.80
2018-03-30T04:17:58.287Z,18.76
2018-03-30T04:20:24.456Z,18.75
2018-03-30T04:22:50.651Z,18.75
2018-03-30T04:25:16.874Z,18.75
2018-03-30T04:27:43.392Z,18.76
2018-03-30T04:30:09.603Z,18.76
2018-03-30T04:32:35.791Z,18.74
2018-03-30T04:35:01.996Z,18.74
2018-03-30T04:37:28.191Z,18.74
2018-03-30T04:39:54.370Z,18.76
2018-03-30T04:42:20.618Z,18.76
2018-03-30T04:44:46.803Z,18.75
2018-03-30T04:47:13.095Z,18.74
2018-03-30T04:49:39.285Z,18.76
2018-03-30T04:52:05.525Z,18.75
2018-03-30T04:54:31.692Z,18.75
2018-03-30T04:56:57.906Z,18.76
2018-03-30T04:59:24.340Z,18.77
2018-03-30T05:01:50.594Z,18.79
2018-03-30T05:04:17.123Z,18.77
2018-03-30T05:06:43.349Z,18.76
2018-03-30T05:09:09.511Z,18.73
2018-03-30T05:11:35.708Z,18.73
2018-03-30T05:14:01.876Z,18.71
2018-03-30T05:16:28.465Z,18.71
2018-03-30T05:18:54.663Z,18.71
2018-03-30T05:21:20.879Z,18.73
2018-03-30T05:23:47.086Z,18.74
2018-03-30T05:26:13.574Z,18.78
2018-03-30T05:28:39.819Z,18.81
2018-03-30T05:31:06.335Z,18.85
2018-03-30T05:33:32.524Z,18.88
2018-03-30T05:35:59.113Z,18.88
2018-03-30T05:38:25.291Z,18.89
2018-03-30T05:40:51.540Z,18.90
2018-03-30T05:43:17.775Z,18.90
2018-03-30T05:45:44.379Z,18.90
2018-03-30T05:48:10.629Z,18.89
2018-03-30T05:50:37.082Z,18.90
2018-03-30T05:53:04.041Z,18.90
2018-03-30T05:55:30.577Z,18.93
2018-03-30T05:57:56.792Z,18.94
2018-03-30T06:00:22.994Z,18.96
2018-03-30T06:02:49.174Z,18.99
2018-03-30T06:05:15.676Z,19.00
2018-03-30T06:07:42.524Z,19.01
2018-03-30T06:10:08.767Z,19.03
2018-03-30T06:12:34.960Z,19.04
2018-03-30T06:15:01.191Z,19.08
2018-03-30T06:17:27.381Z,19.10
2018-03-30T06:19:53.531Z,19.13
2018-03-30T06:22:19.766Z,19.14
2018-03-30T06:24:45.977Z,19.15
2018-03-30T06:27:12.245Z,19.15
2018-03-30T06:29:38.405Z,19.15
2018-03-30T06:32:04.905Z,19.17
2018-03-30T06:34:31.443Z,19.18
2018-03-30T06:36:57.630Z,19.19
2018-03-30T06:39:23.867Z,19.21
2018-03-30T06:41:50.045Z,19.22
2018-03-30T06:44:16.253Z,19.22
2018-03-30T06:46:42.471Z,19.21
2018-03-30T06:49:08.752Z,19.24
2018-03-30T06:51:34.960Z,19.28
2018-03-30T06:54:01.165Z,19.28
2018-03-30T06:56:27.359Z,19.31
2018-03-30T06:58:53.532Z,19.33
2018-03-30T07:01:19.756Z,19.32
2018-03-30T07:03:45.953Z,19.35
2018-03-30T07:06:19.115Z,19.38
2018-03-30T07:08:45.270Z,19.41
2018-03-30T07:11:11.501Z,19.43
2018-03-30T07:13:37.953Z,19.43
2018-03-30T07:16:04.241Z,19.46
2018-03-30T07:18:30.890Z,19.47
2018-03-30T07:20:57.074Z,19.49
2018-03-30T07:23:23.293Z,19.52
2018-03-30T07:25:49.477Z,19.53
2018-03-30T07:28:15.694Z,19.54
2018-03-30T07:30:42.166Z,19.55
2018-03-30T07:33:08.410Z,19.57
2018-03-30T07:35:34.578Z,19.59
2018-03-30T07:38:00.798Z,19.58
2018-03-30T07:40:27.006Z,19.63
2018-03-30T07:42:53.202Z,19.65
2018-03-30T07:45:19.367Z,19.65
2018-03-30T07:47:46.275Z,19.68
2018-03-30T07:50:12.437Z,19.72
2018-03-30T07:52:38.611Z,19.75
2018-03-30T07:55:04.797Z,19.78
2018-03-30T07:57:31.292Z,19.82
2018-03-30T07:59:57.516Z,19.82
2018-03-30T08:02:23.699Z,19.82
2018-03-30T08:04:49.886Z,19.84
2018-03-30T08:07:16.079Z,19.87
2018-03-30T08:09:42.257Z,19.90
2018-03-30T08:12:08.468Z,19.91
2018-03-30T08:14:35.004Z,19.96
2018-03-30T08:17:01.199Z,19.99
2018-03-30T08:19:27.372Z,20.01
2018-03-30T08:21:53.570Z,20.04
2018-03-30T08:24:19.744Z,20.05
2018-03-30T08:26:46.052Z,20.07
2018-03-30T08:29:12.210Z,20.09
2018-03-30T08:31:38.507Z,20.08
2018-03-30T08:34:04.678Z,20.08
2018-03-30T08:36:30.926Z,20.10
2018-03-30T08:38:57.107Z,20.13
2018-03-30T08:41:23.342Z,20.15
2018-03-30T08:43:49.518Z,20.17
2018-03-30T08:46:15.753Z,20.19
2018-03-30T08:48:41.942Z,20.20
2018-03-30T08:51:08.410Z,20.19
2018-03-30T08:53:34.578Z,20.18
2018-03-30T08:56:00.815Z,20.16
2018-03-30T08:58:27.044Z,20.16
2018-03-30T09:00:53.264Z,20.17
2018-03-30T09:03:19.498Z,20.17
2018-03-30T09:05:45.684Z,20.17
2018-03-30T09:08:11.887Z,20.20
2018-03-30T09:10:38.338Z,20.20
2018-03-30T09:13:04.875Z,20.19
2018-03-30T09:15:31.074Z,20.20
2018-03-30T09:17:57.534Z,20.20
2018-03-30T09:20:24.072Z,20.22
2018-03-30T09:22:50.270Z,20.23
2018-03-30T09:25:16.452Z,20.27
2018-03-30T09:27:42.643Z,20.29
2018-03-30T09:30:08.838Z,20.30
2018-03-30T09:32:35.111Z,20.29
2018-03-30T09:35:01.343Z,20.30
2018-03-30T09:37:27.888Z,20.34
2018-03-30T09:39:54.134Z,20.39
2018-03-30T09:42:20.640Z,20.44
2018-03-30T09:44:47.065Z,20.47
2018-03-30T09:47:13.281Z,20.52
2018-03-30T09:49:39.847Z,20.56
2018-03-30T09:52:06.071Z,20.59
2018-03-30T09:54:32.273Z,20.61
2018-03-30T09:56:58.519Z,20.64
2018-03-30T09:59:24.951Z,20.68
2018-03-30T10:01:51.274Z,20.70
2018-03-30T10:04:17.518Z,20.71
2018-03-30T10:06:43.695Z,20.71
2018-03-30T10:09:09.900Z,20.68
2018-03-30T10:11:36.154Z,20.66
2018-03-30T10:14:02.372Z,20.61
2018-03-30T10:16:28.595Z,20.59
2018-03-30T10:18:54.767Z,20.59
2018-03-30T10:21:20.972Z,20.58
2018-03-30T10:23:47.540Z,20.60
2018-03-30T10:26:13.763Z,20.61
2018-03-30T10:28:40.015Z,20.61
2018-03-30T10:31:06.224Z,20.63
2018-03-30T10:33:32.426Z,20.63
2018-03-30T10:35:58.657Z,20.66
2018-03-30T10:38:25.230Z,20.66
2018-03-30T10:40:51.469Z,20.65
2018-03-30T10:43:17.720Z,20.65
2018-03-30T10:45:43.898Z,20.66
2018-03-30T10:48:10.184Z,20.66
2018-03-30T10:50:36.662Z,20.67
2018-03-30T10:53:02.924Z,20.70
2018-03-30T10:55:29.201Z,20.71
2018-03-30T10:57:55.815Z,20.74
2018-03-30T11:00:22.290Z,20.78
2018-03-30T11:02:48.460Z,20.82
2018-03-30T11:05:14.999Z,20.85
2018-03-30T11:07:41.163Z,20.89
2018-03-30T11:10:14.446Z,20.90
2018-03-30T11:12:40.597Z,20.93
2018-03-30T11:15:06.806Z,20.94
2018-03-30T11:17:33.010Z,20.94
2018-03-30T11:19:59.242Z,20.94
2018-03-30T11:22:25.428Z,20.95
2018-03-30T11:24:51.610Z,20.96
2018-03-30T11:27:17.826Z,20.98
2018-03-30T11:29:44.303Z,20.96
2018-03-30T11:32:10.848Z,20.95
2018-03-30T11:34:37.027Z,20.95
2018-03-30T11:37:03.226Z,20.94
2018-03-30T11:39:29.634Z,20.95
2018-03-30T11:41:55.832Z,20.95
2018-03-30T11:44:22.038Z,20.95
2018-03-30T11:46:48.252Z,20.94
2018-03-30T11:49:14.695Z,20.96
2018-03-30T11:51:40.921Z,20.95
2018-03-30T11:54:07.122Z,20.96
2018-03-30T11:56:33.286Z,20.96
2018-03-30T11:58:59.866Z,20.98
2018-03-30T12:01:26.048Z,21.00
2018-03-30T12:03:52.286Z,21.03
2018-03-30T12:06:18.492Z,21.03
2018-03-30T12:08:45.387Z,21.05
2018-03-30T12:11:11.558Z,21.08
2018-03-30T12:13:37.778Z,21.05
2018-03-30T12:16:04.276Z,21.01
2018-03-30T12:18:30.455Z,21.00
2018-03-30T12:20:56.716Z,21.02
2018-03-30T12:23:22.886Z,21.07
2018-03-30T12:25:49.067Z,21.10
2018-03-30T12:28:15.624Z,21.17
2018-03-30T12:30:41.807Z,21.23
2018-03-30T12:33:08.008Z,21.27
2018-03-30T12:35:34.197Z,21.26
2018-03-30T12:38:00.365Z,21.30
2018-03-30T12:40:26.578Z,21.32
2018-03-30T12:42:52.848Z,21.34
2018-03-30T12:45:19.038Z,21.37
2018-03-30T12:47:45.244Z,21.39
2018-03-30T12:50:11.640Z,21.43
2018-03-30T12:52:38.211Z,21.46
2018-03-30T12:55:04.749Z,21.48
2018-03-30T12:57:30.938Z,21.51
2018-03-30T12:59:57.813Z,21.51
2018-03-30T13:02:24.041Z,21.52
2018-03-30T13:04:50.581Z,21.52
2018-03-30T13:07:16.774Z,21.54
2018-03-30T13:09:43.178Z,21.55
2018-03-30T13:12:09.786Z,21.58
2018-03-30T13:14:36.207Z,21.60
2018-03-30T13:17:02.647Z,21.61
2018-03-30T13:19:28.892Z,21.63
2018-03-30T13:21:55.083Z,21.67
2018-03-30T13:24:21.325Z,21.73
2018-03-30T13:26:47.530Z,21.78
2018-03-30T13:29:13.727Z,21.82
2018-03-30T13:31:39.896Z,21.90
2018-03-30T13:34:06.125Z,21.99
2018-03-30T13:36:32.319Z,22.04
2018-03-30T13:38:58.514Z,22.08
2018-03-30T13:41:25.128Z,22.16
2018-03-30T13:43:51.291Z,22.25
2018-03-30T13:46:17.437Z,22.34
2018-03-30T13:48:43.925Z,22.28
2018-03-30T13:54:22.017Z,22.26
2018-03-30T13:56:48.590Z,22.33
2018-03-30T13:59:16.503Z,22.36
2018-03-30T14:02:03.954Z,22.40
2018-03-30T14:04:34.027Z,22.49
2018-03-30T14:07:07.154Z,22.60
2018-03-30T14:09:36.804Z,22.69
2018-03-30T14:12:06.009Z,22.77
2018-03-30T14:14:32.523Z,22.80
2018-03-30T14:17:08.430Z,22.74
2018-03-30T14:19:34.700Z,22.67
2018-03-30T14:25:01.816Z,22.66
2018-03-30T14:27:32.107Z,22.71
2018-03-30T14:30:05.984Z,22.78
2018-03-30T14:32:38.499Z,22.88
2018-03-30T14:35:27.374Z,22.96
2018-03-30T14:37:54.597Z,23.13
2018-03-30T14:40:25.644Z,23.28
2018-03-30T14:43:01.996Z,23.49
2018-03-30T14:45:32.240Z,23.82
2018-03-30T14:47:59.317Z,24.38
2018-03-30T14:50:41.748Z,25.68
2018-03-30T14:53:08.976Z,27.21
2018-03-30T14:55:41.418Z,27.99
2018-03-30T14:58:14.445Z,28.49
2018-03-30T15:00:41.074Z,28.63
2018-03-30T15:03:24.888Z,28.67
2018-03-30T15:06:00.010Z,28.99
2018-03-30T15:08:29.171Z,29.20
2018-03-30T15:13:51.331Z,29.38
2018-03-30T15:16:32.530Z,29.40
2018-03-30T15:18:59.635Z,29.36
2018-03-30T15:21:34.191Z,29.28
2018-03-30T15:24:02.141Z,29.06
2018-03-30T15:26:46.423Z,28.79
2018-03-30T15:29:13.739Z,28.13
2018-03-30T15:34:51.678Z,27.64
2018-03-30T15:37:17.997Z,27.49
2018-03-30T15:39:45.236Z,27.31
2018-03-30T15:42:12.504Z,27.16
2018-03-30T15:44:44.538Z,27.17
2018-03-30T15:47:10.818Z,27.37
2018-03-30T15:49:41.256Z,27.34
2018-03-30T15:52:09.735Z,27.31
2018-03-30T15:54:35.891Z,27.10
2018-03-30T15:57:02.141Z,27.12
2018-03-30T15:59:28.735Z,27.36
2018-03-30T16:01:54.895Z,27.34
2018-03-30T16:04:21.115Z,27.22
2018-03-30T16:06:47.619Z,26.98
2018-03-30T16:09:18.730Z,26.61
2018-03-30T16:11:48.057Z,26.09
2018-03-30T16:14:14.312Z,25.62
2018-03-30T16:16:40.538Z,25.25
2018-03-30T16:19:06.496Z,25.03
2018-03-30T16:21:32.765Z,24.78
2018-03-30T16:23:58.703Z,24.51
2018-03-30T16:26:24.644Z,24.33
2018-03-30T16:28:50.591Z,24.14
2018-03-30T16:31:16.544Z,23.93
2018-03-30T16:33:42.486Z,23.76
2018-03-30T16:36:08.412Z,23.62
2018-03-30T16:38:34.445Z,23.46
2018-03-30T16:41:00.398Z,23.39
2018-03-30T16:43:26.671Z,23.35
2018-03-30T16:45:52.596Z,23.27
2018-03-30T16:48:18.605Z,23.19
2018-03-30T16:50:44.586Z,23.08
2018-03-30T16:53:10.887Z,22.99
2018-03-30T16:55:36.846Z,22.88
2018-03-30T16:58:02.780Z,22.76
2018-03-30T17:00:28.738Z,22.64
2018-03-30T17:02:54.687Z,22.53
2018-03-30T17:05:20.662Z,22.42
2018-03-30T17:07:46.671Z,22.32
2018-03-30T17:10:12.701Z,22.23
2018-03-30T17:12:38.965Z,22.13
2018-03-30T17:15:04.898Z,22.04
2018-03-30T17:17:31.097Z,21.95
2018-03-30T17:19:57.027Z,21.86
2018-03-30T17:22:23.252Z,21.76
2018-03-30T17:24:49.247Z,21.68
2018-03-30T17:27:15.237Z,21.61
2018-03-30T17:29:41.175Z,21.51
2018-03-30T17:32:07.152Z,21.42
2018-03-30T17:34:33.112Z,21.33
2018-03-30T17:36:59.049Z,21.26
2018-03-30T17:39:25.046Z,21.20
2018-03-30T17:41:50.963Z,21.14
2018-03-30T17:44:16.932Z,21.08
2018-03-30T17:46:49.757Z,21.02
2018-03-30T17:49:15.767Z,20.96
2018-03-30T17:51:41.736Z,20.90
2018-03-30T17:54:07.703Z,20.85
2018-03-30T17:56:34.439Z,20.80
2018-03-30T17:59:00.667Z,20.78
2018-03-30T18:01:26.892Z,20.74
2018-03-30T18:03:52.892Z,20.71
2018-03-30T18:06:18.857Z,20.67
2018-03-30T18:08:45.165Z,20.62
2018-03-30T18:11:11.806Z,20.59
2018-03-30T18:13:37.751Z,20.58
2018-03-30T18:16:03.685Z,20.55
2018-03-30T18:18:29.630Z,20.50
2018-03-30T18:20:55.585Z,20.47
2018-03-30T18:23:21.629Z,20.45
2018-03-30T18:25:47.589Z,20.44
2018-03-30T18:28:13.887Z,20.43
2018-03-30T18:30:39.865Z,20.41
2018-03-30T18:33:05.814Z,20.39
2018-03-30T18:35:31.741Z,20.37
2018-03-30T18:37:57.664Z,20.36
2018-03-30T18:40:23.609Z,20.34
2018-03-30T18:42:49.539Z,20.32
2018-03-30T18:45:15.828Z,20.30
2018-03-30T18:47:42.159Z,20.27
2018-03-30T18:50:08.146Z,20.26
2018-03-30T18:52:34.405Z,20.26
2018-03-30T18:55:00.353Z,20.22
2018-03-30T18:57:26.362Z,20.20
2018-03-30T18:59:52.334Z,20.18
2018-03-30T19:02:18.298Z,20.15
2018-03-30T19:04:44.227Z,20.13
2018-03-30T19:07:10.555Z,20.12
2018-03-30T19:09:36.488Z,20.12
2018-03-30T19:12:02.436Z,20.12
2018-03-30T19:14:28.430Z,20.11
2018-03-30T19:16:54.495Z,20.10
2018-03-30T19:19:20.432Z,20.08
2018-03-30T19:21:46.351Z,20.09
2018-03-30T19:24:12.311Z,20.09
2018-03-30T19:26:38.272Z,20.09
2018-03-30T19:29:04.200Z,20.06
2018-03-30T19:31:30.586Z,20.04
2018-03-30T19:33:56.507Z,20.03
2018-03-30T19:36:22.472Z,20.02
2018-03-30T19:38:48.462Z,20.02
2018-03-30T19:41:14.690Z,20.01
2018-03-30T19:43:41.035Z,20.02
2018-03-30T19:46:06.975Z,20.00
2018-03-30T19:48:33.004Z,19.98
2018-03-30T19:50:58.943Z,19.96
2018-03-30T19:53:24.951Z,19.96
2018-03-30T19:55:50.878Z,19.96
2018-03-30T19:58:16.848Z,19.95
2018-03-30T20:00:42.863Z,19.94
2018-03-30T20:03:11.654Z,19.93
2018-03-30T20:05:37.580Z,19.92
2018-03-30T20:08:03.557Z,19.93
2018-03-30T20:10:29.474Z,19.91
2018-03-30T20:12:55.435Z,19.89
2018-03-30T20:15:21.353Z,19.90
2018-03-30T20:17:47.697Z,19.89
2018-03-30T20:20:13.629Z,19.88
2018-03-30T20:22:39.609Z,19.87
2018-03-30T20:25:05.908Z,19.87
2018-03-30T20:27:31.846Z,19.88
2018-03-30T20:29:57.825Z,19.90
2018-03-30T20:32:23.816Z,19.91
2018-03-30T20:34:49.822Z,19.91
2018-03-30T20:37:15.898Z,19.90
2018-03-30T20:39:42.104Z,19.87
2018-03-30T20:42:08.105Z,19.88
2018-03-30T20:44:34.047Z,19.86
2018-03-30T20:46:59.990Z,19.86
2018-03-30T20:49:26.356Z,19.86
2018-03-30T20:51:52.298Z,19.85
2018-03-30T20:54:18.229Z,19.85
2018-03-30T20:56:44.196Z,19.86
2018-03-30T20:59:10.213Z,19.86
2018-03-30T21:01:36.160Z,19.85
2018-03-30T21:04:02.107Z,19.83
2018-03-30T21:06:28.072Z,19.80
2018-03-30T21:08:54.022Z,19.80
2018-03-30T21:11:20.304Z,19.82
2018-03-30T21:13:46.631Z,19.83
2018-03-30T21:16:12.607Z,19.81
2018-03-30T21:18:38.777Z,19.77
2018-03-30T21:21:04.736Z,19.79
2018-03-30T21:23:30.689Z,19.76
2018-03-30T21:25:56.650Z,19.76
2018-03-30T21:28:22.585Z,19.75
2018-03-30T21:30:48.506Z,19.73
2018-03-30T21:33:14.818Z,19.71
2018-03-30T21:35:40.750Z,19.72
2018-03-30T21:38:06.800Z,19.73
2018-03-30T21:40:33.096Z,19.70
2018-03-30T21:42:59.318Z,19.68
2018-03-30T21:45:25.305Z,19.67
2018-03-30T21:47:51.237Z,19.68
2018-03-30T21:50:17.209Z,19.66
2018-03-30T21:52:43.163Z,19.66
2018-03-30T21:55:09.131Z,19.66
2018-03-30T21:57:35.055Z,19.64
2018-03-30T22:00:01.013Z,19.63
2018-03-30T22:02:26.990Z,19.63
2018-03-30T22:04:52.990Z,19.61
2018-03-30T22:07:18.979Z,19.60
2018-03-30T22:09:44.983Z,19.59
2018-03-30T22:12:10.931Z,19.58
2018-03-30T22:14:37.275Z,19.60
2018-03-30T22:17:03.204Z,19.60
2018-03-30T22:19:29.135Z,19.60
2018-03-30T22:21:55.153Z,19.59
2018-03-30T22:24:21.122Z,19.58
2018-03-30T22:26:47.082Z,19.60
2018-03-30T22:29:13.020Z,19.63
2018-03-30T22:31:39.002Z,19.63
2018-03-30T22:34:04.971Z,19.62
2018-03-30T22:36:30.933Z,19.62
2018-03-30T22:38:56.882Z,19.63
2018-03-30T22:41:22.818Z,19.63
2018-03-30T22:43:48.769Z,19.65
2018-03-30T22:46:14.708Z,19.64
2018-03-30T22:48:40.661Z,19.65
2018-03-30T22:51:06.614Z,19.64
2018-03-30T22:53:32.559Z,19.64
2018-03-30T22:55:58.895Z,19.62
2018-03-30T22:58:24.834Z,19.60
2018-03-30T23:00:50.753Z,19.61
2018-03-30T23:03:16.704Z,19.60
2018-03-30T23:05:42.671Z,19.59
2018-03-30T23:08:08.722Z,19.58
2018-03-30T23:10:34.728Z,19.58
2018-03-30T23:13:00.705Z,19.55
2018-03-30T23:15:26.631Z,19.53
2018-03-30T23:17:52.587Z,19.53
2018-03-30T23:20:18.565Z,19.53
2018-03-30T23:22:44.846Z,19.54
2018-03-30T23:25:10.845Z,19.53
2018-03-30T23:27:36.780Z,19.52
2018-03-30T23:30:02.752Z,19.51
2018-03-30T23:32:28.688Z,19.50
2018-03-30T23:34:54.708Z,19.49
2018-03-30T23:37:20.757Z,19.50
2018-03-30T23:39:46.709Z,19.50
2018-03-30T23:42:12.648Z,19.48
2018-03-30T23:44:38.666Z,19.47
2018-03-30T23:47:04.631Z,19.47
2018-03-30T23:49:30.563Z,19.47
2018-03-30T23:51:56.554Z,19.48
2018-03-30T23:54:22.482Z,19.49
2018-03-30T23:56:48.404Z,19.49
2018-03-30T23:59:14.399Z,19.47
